首页
METAR-TAF:

METAR-TAF

机场 :

易卜拉欣·納西爾國際機場

馬累, 马尔代夫

纬度: 04-12N, 经度: 073-32E, 海拔: 2米

当前天气观测

该预报发布于34分钟前的13:00 UTC
风速8节,风向西转西南
温度 30°C
湿度 70%
气压 1009 hPa
能见度10公里或以上
少量云层高于1800英尺
散云层高于27000英尺

METAR: VRMM 171300Z 24008KT 9999 FEW018 SCT270 30/24 Q1009 NOSIG

时间: 18:34 (13:34 UTC)

预报

该预报发布于2小时和34分钟前的11:00 UTC
预报有效从17日的 12点(UTC)到 18日的 18点(UTC)
风速7节,风向西转西南
能见度10公里或以上
少量云层高于1900英尺
短暂存在
从 17日的 13点(UTC)到 17日的 19点(UTC)
少量云层高于1800英尺, 积雨云.

TAF: VRMM 171100Z 1712/1818 24007KT 9999 FEW019 TEMPO 1713/1719 FEW018CB

超过4000个机场的气象观测和天气预报(METAR&TAF报告)。

可查询的气象台以黄色和红色小点在地图上表示。

将鼠标移到小点上方,可查看气象台名称。

然后点击查看天气观测和预报。

如需切换地图:点击带黑十字的绿色按钮放大地图;点击带横线的绿色按钮缩小地图;或者点击绿色箭头查看邻近地区的地图。


METAR-TAF: